Time;durP1;ratioP1;P1;durP2;ratioP2;P2;SDS_P1;SDS_P2;PMS_P1;PMS_P2;Temp;Humidity;BMP_temperature;BMP_pressure;BME280_temperature;BME280_humidity;BME280_pressure;Samples;Min_cycle;Max_cycle;Signal;HPM_P1;HPM_P2
2021/01/23 00:00:58;;;;;;;3.00;1.50;;;15.20;99.90;;;;;;5011258;28;20038;-62
2021/01/23 00:03:24;;;;;;;2.53;1.42;;;15.20;99.90;;;;;;5011396;28;20028;-64
2021/01/23 00:05:49;;;;;;;3.63;1.60;;;15.20;99.90;;;;;;5011157;28;20440;-65
2021/01/23 00:08:15;;;;;;;3.15;1.60;;;15.10;99.90;;;;;;5011582;28;20362;-63
2021/01/23 00:10:43;;;;;;;2.10;1.30;;;15.10;99.90;;;;;;5010432;28;20030;-64
2021/01/23 00:13:08;;;;;;;3.63;1.48;;;15.10;99.90;;;;;;5011645;28;20036;-63
2021/01/23 00:15:34;;;;;;;2.70;1.52;;;15.10;99.90;;;;;;5011217;28;20037;-65
2021/01/23 00:18:00;;;;;;;2.97;1.73;;;15.10;99.90;;;;;;5011451;28;20022;-63
2021/01/23 00:20:25;;;;;;;5.03;1.80;;;15.10;99.90;;;;;;5011465;28;20026;-63
2021/01/23 00:22:51;;;;;;;3.72;1.73;;;15.00;99.90;;;;;;5010799;28;20386;-64
2021/01/23 00:25:17;;;;;;;2.65;1.90;;;15.00;99.90;;;;;;5011073;28;20160;-65
2021/01/23 00:27:42;;;;;;;3.78;1.92;;;15.00;99.90;;;;;;5011269;28;20041;-63
2021/01/23 00:30:08;;;;;;;3.20;1.58;;;15.00;99.90;;;;;;5011164;28;20022;-65
2021/01/23 00:32:34;;;;;;;2.83;1.50;;;15.00;99.90;;;;;;5011085;28;20029;-65
2021/01/23 00:35:00;;;;;;;3.35;1.65;;;14.90;99.90;;;;;;5011193;28;20022;-66
2021/01/23 00:37:25;;;;;;;4.68;1.90;;;14.90;99.90;;;;;;5011066;28;20101;-65
2021/01/23 00:39:51;;;;;;;3.63;1.55;;;14.90;99.90;;;;;;5010728;28;20026;-63
2021/01/23 00:42:17;;;;;;;3.15;1.70;;;14.90;99.90;;;;;;5011334;28;20431;-63
2021/01/23 00:44:42;;;;;;;2.50;1.58;;;14.90;99.90;;;;;;5011580;28;20021;-65
2021/01/23 00:47:08;;;;;;;3.17;1.95;;;14.90;99.90;;;;;;5015207;28;20033;-64
2021/01/23 00:49:33;;;;;;;2.75;1.42;;;14.80;99.90;;;;;;5014633;28;20053;-65
2021/01/23 00:51:59;;;;;;;3.05;1.50;;;14.90;99.90;;;;;;5014968;28;20033;-65
2021/01/23 00:54:25;;;;;;;3.42;1.60;;;14.90;99.90;;;;;;5014415;28;20065;-64
2021/01/23 00:56:50;;;;;;;3.42;1.67;;;14.90;99.90;;;;;;5013996;28;20045;-64
2021/01/23 00:59:16;;;;;;;3.92;1.50;;;14.80;99.90;;;;;;5014859;28;20026;-64
2021/01/23 01:01:41;;;;;;;4.97;1.83;;;14.80;99.90;;;;;;5014639;28;20478;-64
2021/01/23 01:04:07;;;;;;;2.45;1.40;;;14.80;99.90;;;;;;5014576;28;20057;-64
2021/01/23 01:06:33;;;;;;;2.75;1.55;;;14.70;99.90;;;;;;5014334;28;20030;-64
2021/01/23 01:08:58;;;;;;;3.20;1.50;;;14.70;99.90;;;;;;5014733;28;20022;-64
2021/01/23 01:11:24;;;;;;;2.60;1.50;;;14.70;99.90;;;;;;5014550;28;20087;-64
2021/01/23 01:13:49;;;;;;;3.17;1.60;;;14.70;99.90;;;;;;5014416;28;20018;-64
2021/01/23 01:16:15;;;;;;;2.10;1.60;;;14.70;99.90;;;;;;5014137;28;20077;-64
2021/01/23 01:18:40;;;;;;;2.90;1.48;;;14.70;99.90;;;;;;5014187;28;20060;-64
2021/01/23 01:21:06;;;;;;;3.53;1.83;;;14.70;99.90;;;;;;5014136;28;20030;-65
2021/01/23 01:23:32;;;;;;;2.72;1.50;;;14.60;99.90;;;;;;5014311;28;20025;-64
2021/01/23 01:25:57;;;;;;;4.18;1.77;;;14.60;99.90;;;;;;5013404;28;20418;-64
2021/01/23 01:28:23;;;;;;;2.15;1.38;;;14.60;99.90;;;;;;5014239;28;20065;-64
2021/01/23 01:30:49;;;;;;;2.47;1.50;;;14.60;99.90;;;;;;5014242;28;20470;-64
2021/01/23 01:33:14;;;;;;;4.82;1.60;;;14.60;99.90;;;;;;5013971;28;20381;-64
2021/01/23 01:35:40;;;;;;;3.53;1.50;;;14.60;99.90;;;;;;5013692;28;20042;-64
2021/01/23 01:38:07;;;;;;;3.15;1.30;;;14.60;99.90;;;;;;5013870;28;20030;-64
2021/01/23 01:40:33;;;;;;;4.32;2.00;;;14.60;99.90;;;;;;5013883;28;20108;-65
2021/01/23 01:42:58;;;;;;;2.30;1.30;;;14.60;99.90;;;;;;5014429;28;20529;-64
2021/01/23 01:45:24;;;;;;;3.78;1.70;;;14.50;99.90;;;;;;5014065;28;20032;-63
2021/01/23 01:47:50;;;;;;;2.60;1.80;;;14.50;99.90;;;;;;5013826;28;20025;-64
2021/01/23 01:50:16;;;;;;;4.43;1.80;;;14.50;99.90;;;;;;5013649;28;20025;-65
2021/01/23 01:52:43;;;;;;;4.90;1.60;;;14.50;99.90;;;;;;5013626;28;20041;-64
2021/01/23 01:55:13;;;;;;;3.45;1.67;;;14.50;99.90;;;;;;5012947;28;20021;-65
2021/01/23 01:57:39;;;;;;;2.42;1.55;;;14.50;99.90;;;;;;5012445;28;20080;-65
2021/01/23 02:00:08;;;;;;;2.83;1.67;;;14.50;99.90;;;;;;5013817;28;20028;-64
2021/01/23 02:03:13;;;;;;;2.80;1.50;;;14.50;99.90;;;;;;5013331;28;20037;-65
2021/01/23 02:06:18;;;;;;;2.33;1.38;;;14.50;99.90;;;;;;5012824;28;20494;-64
2021/01/23 02:08:59;;;;;;;3.03;1.60;;;14.40;99.90;;;;;;4992431;28;20050;-64
2021/01/23 02:11:35;;;;;;;3.70;1.38;;;14.40;99.90;;;;;;4994029;28;20470;-64
2021/01/23 02:14:05;;;;;;;2.72;1.42;;;14.40;99.90;;;;;;4994294;28;20030;-65
2021/01/23 02:16:36;;;;;;;4.20;1.58;;;14.40;99.90;;;;;;5012898;28;20058;-64
2021/01/23 02:19:28;;;;;;;3.10;1.52;;;14.40;99.90;;;;;;5013325;28;20030;-64
2021/01/23 02:21:54;;;;;;;2.17;1.45;;;14.40;99.90;;;;;;5013133;28;20108;-65
2021/01/23 02:24:25;;;;;;;2.72;1.50;;;14.40;99.90;;;;;;5013047;28;20060;-65
2021/01/23 02:27:30;;;;;;;3.70;1.70;;;14.40;99.90;;;;;;5012606;28;20053;-65
2021/01/23 02:30:14;;;;;;;2.22;1.23;;;14.30;99.90;;;;;;5002322;28;20030;-64
2021/01/23 02:32:41;;;;;;;3.03;1.67;;;14.30;99.90;;;;;;5013097;28;20026;-64
2021/01/23 02:35:10;;;;;;;2.05;1.30;;;14.30;99.90;;;;;;5012790;28;20033;-64
2021/01/23 02:37:37;;;;;;;3.03;1.60;;;14.30;99.90;;;;;;5012865;28;20109;-64
2021/01/23 02:40:04;;;;;;;2.75;1.42;;;14.30;99.90;;;;;;5012411;28;20471;-64
2021/01/23 02:42:30;;;;;;;2.70;1.40;;;14.30;99.90;;;;;;5013001;28;20030;-64
2021/01/23 02:44:55;;;;;;;1.83;1.33;;;14.30;99.90;;;;;;5012355;28;20026;-64
2021/01/23 02:47:21;;;;;;;2.78;1.48;;;14.30;99.90;;;;;;5012837;28;20105;-64
2021/01/23 02:49:47;;;;;;;3.13;1.58;;;14.30;99.90;;;;;;5012417;28;20026;-64
2021/01/23 02:52:40;;;;;;;2.63;1.50;;;14.30;99.90;;;;;;5012252;28;20032;-64
2021/01/23 02:55:09;;;;;;;4.45;1.50;;;14.30;99.90;;;;;;5012266;28;20030;-64
2021/01/23 02:57:38;;;;;;;1.95;1.35;;;14.30;99.90;;;;;;5011877;28;20073;-64
2021/01/23 03:00:10;;;;;;;2.67;1.50;;;14.30;99.90;;;;;;5012669;28;20022;-63
2021/01/23 03:02:41;;;;;;;3.10;1.40;;;14.30;99.90;;;;;;5012092;28;20050;-63
2021/01/23 03:05:08;;;;;;;2.65;1.50;;;14.20;99.90;;;;;;5012244;28;20037;-64
2021/01/23 03:07:34;;;;;;;4.72;1.60;;;14.20;99.90;;;;;;5011459;28;20034;-63
2021/01/23 03:10:07;;;;;;;4.68;1.27;;;14.20;99.90;;;;;;5011698;28;20037;-64
2021/01/23 03:12:33;;;;;;;2.17;1.27;;;14.20;99.90;;;;;;5012247;28;20370;-64
2021/01/23 03:14:59;;;;;;;2.80;1.30;;;14.20;99.90;;;;;;5012260;28;20029;-63
2021/01/23 03:17:25;;;;;;;2.80;1.45;;;14.20;99.90;;;;;;5012636;28;20117;-64
2021/01/23 03:19:51;;;;;;;3.35;1.63;;;14.20;99.90;;;;;;5011876;28;20470;-63
2021/01/23 03:22:16;;;;;;;2.20;1.15;;;14.20;99.90;;;;;;5011863;28;20030;-64
2021/01/23 03:24:42;;;;;;;3.55;1.30;;;14.20;99.90;;;;;;5011370;28;20049;-64
2021/01/23 03:27:07;;;;;;;4.57;1.33;;;14.20;99.90;;;;;;5011674;28;20041;-64
2021/01/23 03:29:33;;;;;;;2.88;1.40;;;14.20;99.90;;;;;;5011690;28;20113;-64
2021/01/23 03:31:59;;;;;;;4.20;1.30;;;14.10;99.90;;;;;;5012080;28;20022;-64
2021/01/23 03:34:24;;;;;;;3.05;1.10;;;14.10;99.90;;;;;;5012090;28;20030;-64
2021/01/23 03:36:50;;;;;;;2.80;1.45;;;14.10;99.90;;;;;;5011380;28;20050;-64
2021/01/23 03:39:15;;;;;;;2.53;1.40;;;14.10;99.90;;;;;;5011771;28;20453;-64
2021/01/23 03:41:41;;;;;;;3.65;1.75;;;14.00;99.90;;;;;;5011204;28;20053;-64
2021/01/23 03:44:07;;;;;;;2.50;1.10;;;14.00;99.90;;;;;;5012087;28;20410;-64
2021/01/23 03:46:33;;;;;;;2.15;1.20;;;14.00;99.90;;;;;;5011652;28;20428;-65
2021/01/23 03:48:59;;;;;;;2.30;1.20;;;14.00;99.90;;;;;;5012142;28;20026;-65
2021/01/23 03:51:25;;;;;;;2.75;1.27;;;14.00;99.90;;;;;;5011553;28;20036;-65
2021/01/23 03:53:51;;;;;;;3.45;1.38;;;14.00;99.90;;;;;;5011259;28;20026;-64
2021/01/23 03:56:17;;;;;;;1.95;1.00;;;13.90;99.90;;;;;;5010978;28;20037;-64
2021/01/23 03:58:42;;;;;;;2.72;1.63;;;13.90;99.90;;;;;;5011233;28;20033;-65
2021/01/23 04:01:08;;;;;;;2.22;1.40;;;13.90;99.90;;;;;;5011680;28;20029;-64
2021/01/23 04:03:34;;;;;;;2.00;1.27;;;13.90;99.90;;;;;;5011272;28;20036;-64
2021/01/23 04:05:59;;;;;;;3.58;1.40;;;13.90;99.90;;;;;;5011285;28;20100;-65
2021/01/23 04:08:25;;;;;;;2.55;1.25;;;13.90;99.90;;;;;;5011499;28;20029;-65
2021/01/23 04:10:50;;;;;;;3.63;1.05;;;13.90;99.90;;;;;;5011188;28;20026;-64
2021/01/23 04:13:16;;;;;;;3.45;1.30;;;13.90;99.90;;;;;;5011223;28;20041;-64
2021/01/23 04:15:42;;;;;;;1.63;1.08;;;13.80;99.90;;;;;;5010863;28;20038;-65
2021/01/23 04:18:07;;;;;;;3.13;1.33;;;13.80;99.90;;;;;;5011505;28;20022;-64
2021/01/23 04:20:33;;;;;;;4.45;1.38;;;13.80;99.90;;;;;;5014836;28;20549;-64
2021/01/23 04:22:59;;;;;;;2.15;1.15;;;13.80;99.90;;;;;;5018402;28;20034;-65
2021/01/23 04:25:25;;;;;;;2.08;1.10;;;13.70;99.90;;;;;;5016968;28;20543;-64
2021/01/23 04:27:51;;;;;;;2.85;1.40;;;13.70;99.90;;;;;;5017442;28;20034;-64
2021/01/23 04:30:17;;;;;;;1.80;1.05;;;13.70;99.90;;;;;;5017976;28;20029;-65
2021/01/23 04:32:42;;;;;;;1.83;1.02;;;13.70;99.90;;;;;;5017235;28;20021;-64
2021/01/23 04:35:10;;;;;;;5.40;1.50;;;13.70;99.90;;;;;;5017886;28;20347;-65
2021/01/23 04:37:37;;;;;;;1.80;1.20;;;13.70;99.90;;;;;;5017846;28;20038;-65
2021/01/23 04:40:05;;;;;;;3.13;1.27;;;13.70;99.90;;;;;;5017689;28;20025;-65
2021/01/23 04:42:30;;;;;;;3.83;1.30;;;13.70;99.90;;;;;;5018243;28;20386;-65
2021/01/23 04:44:56;;;;;;;4.07;1.20;;;13.60;99.90;;;;;;5017675;28;20014;-64
2021/01/23 04:47:21;;;;;;;3.13;1.05;;;13.60;99.90;;;;;;5013155;28;20061;-64
2021/01/23 04:49:47;;;;;;;3.20;1.20;;;13.60;99.90;;;;;;5004041;28;20449;-64
2021/01/23 04:52:14;;;;;;;3.22;0.90;;;13.60;99.90;;;;;;5018054;28;20041;-64
2021/01/23 04:54:43;;;;;;;2.10;1.10;;;13.60;99.90;;;;;;5017392;28;20042;-64
2021/01/23 04:57:09;;;;;;;3.60;1.63;;;13.60;99.90;;;;;;5017212;28;20045;-64
2021/01/23 04:59:34;;;;;;;2.85;1.40;;;13.60;99.90;;;;;;5017626;28;20100;-64
2021/01/23 05:02:16;;;;;;;5.10;1.25;;;13.60;99.90;;;;;;5017296;28;20030;-64
2021/01/23 05:04:46;;;;;;;3.08;1.23;;;13.50;99.90;;;;;;5016942;28;20037;-64
2021/01/23 05:07:30;;;;;;;2.88;1.30;;;13.50;99.90;;;;;;5017859;28;20065;-64
2021/01/23 05:10:11;;;;;;;2.55;1.20;;;13.50;99.90;;;;;;5017361;28;20030;-63
2021/01/23 05:12:39;;;;;;;1.88;0.93;;;13.50;99.90;;;;;;5017080;28;20061;-64
2021/01/23 05:15:08;;;;;;;3.70;1.17;;;13.50;99.90;;;;;;5016239;28;20057;-64
2021/01/23 05:17:56;;;;;;;2.17;1.10;;;13.60;99.90;;;;;;5017269;28;20045;-64
2021/01/23 05:20:30;;;;;;;2.90;1.00;;;13.50;99.90;;;;;;5017849;28;20026;-64
2021/01/23 05:22:55;;;;;;;4.55;1.45;;;13.50;99.90;;;;;;5017099;28;20025;-64
2021/01/23 05:25:25;;;;;;;3.00;1.08;;;13.50;99.90;;;;;;5016576;28;20030;-63
2021/01/23 05:27:51;;;;;;;2.92;1.00;;;13.50;99.90;;;;;;5017090;28;20040;-63
2021/01/23 05:30:17;;;;;;;1.92;0.98;;;13.50;99.90;;;;;;5017042;28;20029;-63
2021/01/23 05:32:42;;;;;;;2.03;1.08;;;13.50;99.90;;;;;;5012804;28;20481;-64
2021/01/23 05:35:15;;;;;;;2.72;0.90;;;13.50;99.90;;;;;;5013712;28;20108;-64
2021/01/23 05:37:41;;;;;;;2.67;1.10;;;13.40;99.90;;;;;;5013585;28;20482;-65
2021/01/23 05:40:08;;;;;;;5.25;1.25;;;13.50;99.90;;;;;;5013791;28;20026;-63
2021/01/23 05:42:44;;;;;;;1.95;0.98;;;13.40;99.90;;;;;;5012559;28;20037;-63
2021/01/23 05:45:14;;;;;;;4.20;1.13;;;13.50;99.90;;;;;;5014051;28;20026;-63
2021/01/23 05:47:40;;;;;;;2.45;1.02;;;13.40;99.90;;;;;;5013798;28;20101;-63
2021/01/23 05:50:10;;;;;;;2.95;0.93;;;13.40;99.90;;;;;;5014151;28;20050;-64
2021/01/23 05:52:36;;;;;;;4.05;1.00;;;13.40;99.90;;;;;;5013219;28;20042;-63
2021/01/23 05:55:03;;;;;;;2.65;1.10;;;13.40;99.90;;;;;;5013441;28;20359;-63
2021/01/23 05:57:29;;;;;;;4.70;1.20;;;13.40;99.90;;;;;;5013618;28;20046;-63
2021/01/23 05:59:55;;;;;;;1.90;0.98;;;13.40;99.90;;;;;;5013146;28;20109;-63
2021/01/23 06:02:22;;;;;;;1.95;1.00;;;13.40;99.90;;;;;;5012972;28;20029;-64
2021/01/23 06:04:52;;;;;;;1.65;0.75;;;13.40;99.90;;;;;;5013064;28;20097;-63
2021/01/23 06:07:40;;;;;;;1.77;1.13;;;13.40;99.90;;;;;;5013689;28;20029;-64
2021/01/23 06:10:25;;;;;;;2.05;1.00;;;13.30;99.90;;;;;;5013632;28;20022;-64
2021/01/23 06:12:52;;;;;;;2.40;0.90;;;13.30;99.90;;;;;;5012687;28;20482;-63
2021/01/23 06:15:38;;;;;;;3.42;0.95;;;13.30;99.90;;;;;;5013446;28;20500;-63
2021/01/23 06:18:26;;;;;;;3.13;0.80;;;13.30;99.90;;;;;;5012892;28;20041;-63
2021/01/23 06:20:53;;;;;;;2.25;0.90;;;13.30;99.90;;;;;;4993663;28;20031;-63
2021/01/23 06:23:23;;;;;;;1.92;0.90;;;13.30;99.90;;;;;;4999282;28;20037;-64
2021/01/23 06:25:48;;;;;;;1.92;0.88;;;13.30;99.90;;;;;;5011982;28;20425;-64
2021/01/23 06:28:17;;;;;;;2.28;1.02;;;13.30;99.90;;;;;;5011381;28;20034;-64
2021/01/23 06:30:43;;;;;;;1.95;1.20;;;13.30;99.90;;;;;;5012776;28;20121;-64
2021/01/23 06:33:24;;;;;;;2.90;0.85;;;13.30;99.90;;;;;;5012972;28;20532;-64
2021/01/23 06:36:01;;;;;;;2.08;0.90;;;13.30;99.90;;;;;;5013092;28;20406;-64
2021/01/23 06:38:28;;;;;;;1.77;0.80;;;13.30;99.90;;;;;;5012777;28;20053;-64
2021/01/23 06:40:54;;;;;;;2.33;0.90;;;13.30;99.90;;;;;;5012312;28;20034;-63
2021/01/23 06:43:19;;;;;;;1.75;0.82;;;13.30;99.90;;;;;;5012424;28;20546;-64
2021/01/23 06:45:45;;;;;;;2.60;0.90;;;13.20;99.90;;;;;;5012685;28;20034;-66
2021/01/23 06:48:11;;;;;;;1.75;0.60;;;13.20;99.90;;;;;;5012903;28;20030;-65
2021/01/23 06:50:42;;;;;;;3.08;0.88;;;13.30;99.90;;;;;;5012771;28;20033;-65
2021/01/23 06:53:20;;;;;;;2.58;0.85;;;13.30;99.90;;;;;;5012973;28;20026;-65
2021/01/23 06:55:53;;;;;;;1.38;0.90;;;13.30;99.90;;;;;;4992912;28;20574;-65
2021/01/23 06:58:29;;;;;;;2.90;0.85;;;13.30;99.90;;;;;;4993287;28;20022;-65
2021/01/23 07:00:59;;;;;;;1.45;0.80;;;13.30;99.90;;;;;;4998637;28;20092;-65
2021/01/23 07:03:27;;;;;;;2.55;0.75;;;13.30;99.90;;;;;;5012825;28;20030;-65
2021/01/23 07:05:58;;;;;;;1.73;0.75;;;13.30;99.90;;;;;;5012051;28;20061;-65
2021/01/23 07:08:38;;;;;;;1.98;0.90;;;13.30;99.90;;;;;;5012455;28;20022;-65
2021/01/23 07:11:10;;;;;;;2.00;0.75;;;13.30;99.90;;;;;;5012446;28;20025;-68
2021/01/23 07:13:37;;;;;;;1.02;0.63;;;13.30;99.90;;;;;;5011830;28;20033;-63
2021/01/23 07:16:03;;;;;;;2.33;0.65;;;13.50;99.90;;;;;;5012583;28;20038;-64
2021/01/23 07:18:28;;;;;;;3.22;0.80;;;13.90;99.90;;;;;;5012948;28;20029;-65
2021/01/23 07:20:55;;;;;;;2.85;0.70;;;14.20;99.90;;;;;;5011533;28;20033;-64
2021/01/23 07:23:21;;;;;;;1.70;0.70;;;14.20;99.90;;;;;;5012714;28;20030;-64
2021/01/23 07:25:50;;;;;;;3.78;0.90;;;14.20;99.90;;;;;;5012158;28;20032;-62
2021/01/23 07:28:18;;;;;;;2.40;0.60;;;14.10;99.90;;;;;;5012221;28;20355;-62
2021/01/23 07:30:43;;;;;;;2.05;0.60;;;14.10;99.90;;;;;;5012061;28;20033;-64
2021/01/23 07:33:11;;;;;;;1.00;0.50;;;14.10;99.90;;;;;;5011764;28;20386;-65
2021/01/23 07:35:38;;;;;;;2.85;0.82;;;14.20;99.90;;;;;;5011202;28;20034;-64
2021/01/23 07:38:05;;;;;;;2.80;0.70;;;14.30;99.90;;;;;;5011443;28;20030;-64
2021/01/23 07:40:34;;;;;;;4.53;0.68;;;14.30;99.90;;;;;;5006287;28;20029;-63
2021/01/23 07:43:02;;;;;;;2.25;0.60;;;14.30;99.90;;;;;;5015768;28;20521;-64
2021/01/23 07:45:28;;;;;;;2.88;0.70;;;14.40;99.90;;;;;;5009637;28;20046;-63
2021/01/23 07:47:58;;;;;;;2.33;0.70;;;14.50;99.90;;;;;;5022568;28;20025;-64
2021/01/23 07:50:24;;;;;;;4.57;0.90;;;14.60;99.90;;;;;;5008345;28;20068;-64
2021/01/23 07:52:50;;;;;;;4.75;0.98;;;14.70;99.90;;;;;;5031711;28;20025;-68
2021/01/23 07:55:16;;;;;;;3.15;0.90;;;14.80;99.90;;;;;;5027997;28;20051;-64
2021/01/23 07:57:41;;;;;;;3.70;0.90;;;14.90;99.90;;;;;;5030818;28;20061;-67
2021/01/23 08:00:19;;;;;;;5.18;0.80;;;15.00;99.90;;;;;;5031662;28;20048;-67
2021/01/23 08:02:54;;;;;;;2.50;0.52;;;15.10;99.90;;;;;;5030262;28;20079;-62
2021/01/23 08:05:20;;;;;;;5.18;1.15;;;15.20;99.90;;;;;;5016228;28;20025;-63
2021/01/23 08:07:46;;;;;;;3.67;0.77;;;15.30;99.90;;;;;;5011063;28;20510;-63
2021/01/23 08:10:13;;;;;;;3.67;0.80;;;15.50;99.90;;;;;;5012350;28;20022;-63
2021/01/23 08:12:54;;;;;;;3.72;0.80;;;15.60;99.90;;;;;;5028680;28;20034;-63
2021/01/23 08:15:40;;;;;;;5.93;0.82;;;15.70;99.90;;;;;;5016665;28;20030;-62
2021/01/23 08:18:16;;;;;;;3.15;0.70;;;15.70;99.90;;;;;;5030396;28;20041;-63
2021/01/23 08:20:42;;;;;;;7.38;1.00;;;15.70;99.90;;;;;;5028538;28;20017;-63
2021/01/23 08:23:10;;;;;;;3.10;1.00;;;15.80;99.90;;;;;;5031340;28;20527;-63
2021/01/23 08:25:49;;;;;;;4.65;0.80;;;15.80;99.90;;;;;;5004721;28;20132;-62
2021/01/23 08:28:16;;;;;;;3.65;0.98;;;15.90;99.90;;;;;;5010893;28;20022;-63
2021/01/23 08:30:42;;;;;;;4.20;0.90;;;15.90;99.90;;;;;;5011286;28;20030;-63
2021/01/23 08:33:10;;;;;;;2.47;0.90;;;16.00;99.90;;;;;;5019370;28;20083;-63
2021/01/23 08:35:38;;;;;;;4.30;1.00;;;16.00;99.90;;;;;;5021253;28;20394;-63
2021/01/23 08:38:05;;;;;;;2.85;1.10;;;16.10;99.90;;;;;;5031276;28;20018;-63
2021/01/23 08:40:31;;;;;;;3.45;1.20;;;16.10;99.90;;;;;;5019540;28;20037;-63
2021/01/23 08:42:56;;;;;;;2.95;1.30;;;16.20;99.90;;;;;;5031006;28;20105;-63
2021/01/23 08:45:24;;;;;;;4.50;1.00;;;16.20;99.90;;;;;;5012005;28;20747;-61
2021/01/23 08:47:50;;;;;;;3.42;1.05;;;16.30;99.90;;;;;;4999381;28;20061;-60
2021/01/23 08:50:16;;;;;;;2.10;1.08;;;16.50;99.90;;;;;;5009466;28;20030;-62
2021/01/23 08:52:42;;;;;;;4.25;1.00;;;16.90;99.90;;;;;;5010009;28;20029;-62
2021/01/23 08:55:08;;;;;;;5.68;1.08;;;17.30;99.90;;;;;;5009354;28;20022;-60
2021/01/23 08:57:34;;;;;;;2.45;0.75;;;17.60;99.90;;;;;;5009976;28;20053;-62
2021/01/23 09:00:00;;;;;;;1.67;0.88;;;18.00;99.90;;;;;;5018848;28;20037;-62
2021/01/23 09:02:26;;;;;;;2.45;1.08;;;18.20;99.90;;;;;;5018928;28;20036;-62
2021/01/23 09:04:52;;;;;;;5.88;1.10;;;18.30;99.90;;;;;;5010252;28;20414;-67
2021/01/23 09:07:18;;;;;;;4.93;1.08;;;18.10;99.90;;;;;;5010108;28;20509;-67
2021/01/23 09:09:45;;;;;;;3.40;0.90;;;17.70;99.90;;;;;;5014654;28;20052;-65
2021/01/23 09:12:11;;;;;;;4.93;1.10;;;17.40;99.90;;;;;;5028179;28;20038;-64
2021/01/23 09:14:36;;;;;;;3.00;1.00;;;17.20;99.90;;;;;;5027375;28;20030;-65
2021/01/23 09:17:02;;;;;;;5.63;1.00;;;17.10;99.90;;;;;;4996981;28;20042;-65
2021/01/23 09:19:28;;;;;;;4.63;1.20;;;17.10;99.90;;;;;;5025284;28;20022;-66
2021/01/23 09:21:53;;;;;;;3.00;1.08;;;17.10;99.90;;;;;;5033019;28;20025;-64
2021/01/23 09:24:19;;;;;;;4.15;1.25;;;17.00;99.90;;;;;;5026692;28;20034;-66
2021/01/23 09:26:45;;;;;;;3.22;1.38;;;17.00;99.90;;;;;;5013933;28;20022;-66
2021/01/23 09:29:11;;;;;;;4.22;1.17;;;16.90;99.90;;;;;;5018741;28;20485;-66
2021/01/23 09:31:38;;;;;;;4.72;1.30;;;16.90;99.90;;;;;;5031889;28;20096;-65
2021/01/23 09:34:03;;;;;;;4.32;1.40;;;16.80;99.90;;;;;;5032917;28;20021;-66
2021/01/23 09:36:29;;;;;;;5.00;1.30;;;16.80;99.90;;;;;;5034437;28;20048;-65
2021/01/23 09:38:55;;;;;;;4.28;1.67;;;16.70;99.90;;;;;;5029097;28;20028;-65
2021/01/23 09:41:21;;;;;;;5.35;1.35;;;16.70;99.90;;;;;;5031870;28;20029;-65
2021/01/23 09:43:46;;;;;;;3.35;1.42;;;16.60;99.90;;;;;;5029540;28;20139;-64
2021/01/23 09:46:12;;;;;;;2.58;1.02;;;16.60;99.90;;;;;;5030957;28;20038;-64
2021/01/23 09:48:38;;;;;;;4.65;1.60;;;16.60;99.90;;;;;;5030578;28;20071;-63
2021/01/23 09:51:04;;;;;;;2.75;1.38;;;16.60;99.90;;;;;;5029422;28;20104;-63
2021/01/23 09:53:30;;;;;;;3.95;1.50;;;16.50;99.90;;;;;;5034161;28;20040;-65
2021/01/23 09:55:55;;;;;;;4.53;1.63;;;16.50;99.90;;;;;;5031991;28;20465;-63
2021/01/23 09:58:21;;;;;;;5.78;1.60;;;16.40;99.90;;;;;;5027624;28;20383;-63
2021/01/23 10:00:47;;;;;;;3.38;1.35;;;16.50;99.90;;;;;;5019849;28;20369;-63
2021/01/23 10:03:14;;;;;;;3.20;1.45;;;16.40;99.90;;;;;;5017498;28;20030;-64
2021/01/23 10:05:39;;;;;;;4.20;1.40;;;16.40;99.90;;;;;;5031927;28;20036;-63
2021/01/23 10:08:06;;;;;;;2.95;1.48;;;16.40;99.90;;;;;;5033546;28;20076;-63
2021/01/23 10:10:32;;;;;;;4.88;1.40;;;16.40;99.90;;;;;;5032110;28;20462;-63
2021/01/23 10:12:58;;;;;;;3.72;1.25;;;16.30;99.90;;;;;;5033828;28;20516;-63
2021/01/23 10:15:23;;;;;;;3.40;1.45;;;16.30;99.90;;;;;;5031927;28;20037;-64
2021/01/23 10:17:49;;;;;;;3.08;1.40;;;16.30;99.90;;;;;;5032705;28;20525;-63
2021/01/23 10:20:14;;;;;;;3.90;1.75;;;16.30;99.90;;;;;;5012367;28;20402;-63
2021/01/23 10:22:40;;;;;;;3.92;1.55;;;16.30;99.90;;;;;;5007811;28;20068;-62
2021/01/23 10:25:06;;;;;;;4.80;1.30;;;16.20;99.90;;;;;;5019595;28;20026;-63
2021/01/23 10:27:32;;;;;;;4.57;1.52;;;16.20;99.90;;;;;;5033291;28;20385;-63
2021/01/23 10:29:58;;;;;;;3.67;1.60;;;16.20;99.90;;;;;;5015135;28;20029;-63
2021/01/23 10:32:23;;;;;;;4.75;1.90;;;16.20;99.90;;;;;;5013467;28;20459;-65
2021/01/23 10:34:49;;;;;;;3.78;1.70;;;16.10;99.90;;;;;;5020535;28;20478;-63
2021/01/23 10:37:15;;;;;;;4.55;1.88;;;16.10;99.90;;;;;;5022911;28;20053;-63
2021/01/23 10:39:41;;;;;;;3.45;1.45;;;16.10;99.90;;;;;;5031715;28;20458;-63
2021/01/23 10:42:07;;;;;;;4.85;1.52;;;16.10;99.90;;;;;;5032995;28;20029;-63
2021/01/23 10:44:38;;;;;;;2.92;1.80;;;16.00;99.90;;;;;;5023952;28;20021;-63
2021/01/23 10:47:05;;;;;;;2.63;1.50;;;16.00;99.90;;;;;;5016741;28;20382;-63
2021/01/23 10:49:30;;;;;;;4.60;1.70;;;16.00;99.90;;;;;;5012724;28;20046;-63
2021/01/23 10:51:56;;;;;;;4.35;1.65;;;16.00;99.90;;;;;;5021921;28;20045;-63
2021/01/23 10:54:22;;;;;;;2.60;1.65;;;15.90;99.90;;;;;;5021713;28;20402;-62
2021/01/23 10:56:47;;;;;;;2.95;1.60;;;16.00;99.90;;;;;;5012747;28;20049;-62
2021/01/23 10:59:13;;;;;;;4.57;1.67;;;16.00;99.90;;;;;;5019096;28;21991;-63
2021/01/23 11:01:38;;;;;;;2.20;1.40;;;15.90;99.90;;;;;;5015465;28;20084;-62
2021/01/23 11:04:04;;;;;;;3.42;1.77;;;15.90;99.90;;;;;;5014110;28;20100;-64
2021/01/23 11:06:30;;;;;;;3.30;1.50;;;15.90;99.90;;;;;;5022364;28;20036;-63
2021/01/23 11:08:55;;;;;;;2.00;1.23;;;15.90;99.90;;;;;;5032111;28;20021;-64
2021/01/23 11:11:21;;;;;;;2.22;1.40;;;15.90;99.90;;;;;;5031352;28;20387;-63
2021/01/23 11:13:47;;;;;;;3.97;1.50;;;15.90;99.90;;;;;;5032258;28;20060;-63
2021/01/23 11:16:12;;;;;;;3.25;1.50;;;15.80;99.90;;;;;;5030677;28;20037;-65
2021/01/23 11:18:38;;;;;;;3.67;1.58;;;15.80;99.90;;;;;;5029104;28;20029;-63
2021/01/23 11:21:04;;;;;;;3.08;1.65;;;15.80;99.90;;;;;;5031113;28;20090;-63
2021/01/23 11:23:30;;;;;;;3.10;1.50;;;15.80;99.90;;;;;;5030513;28;20529;-65
2021/01/23 11:25:55;;;;;;;4.97;1.40;;;15.80;99.90;;;;;;5030597;28;20120;-65
2021/01/23 11:28:21;;;;;;;2.10;1.40;;;15.80;99.90;;;;;;5031999;28;20533;-65
2021/01/23 11:30:48;;;;;;;3.90;1.60;;;15.80;99.90;;;;;;5024638;28;20112;-65
2021/01/23 11:33:14;;;;;;;3.20;1.40;;;15.80;99.90;;;;;;5031987;28;20462;-66
2021/01/23 11:35:40;;;;;;;3.65;1.60;;;15.80;99.90;;;;;;5029403;28;20086;-65
2021/01/23 11:38:06;;;;;;;2.70;1.50;;;15.80;99.90;;;;;;5031737;28;20045;-66
2021/01/23 11:40:31;;;;;;;3.05;1.20;;;15.70;99.90;;;;;;5017051;28;20025;-65
2021/01/23 11:42:57;;;;;;;3.20;1.58;;;15.70;99.90;;;;;;5012383;28;20034;-65
2021/01/23 11:45:23;;;;;;;1.95;1.02;;;15.70;99.90;;;;;;5016333;28;20025;-65
2021/01/23 11:47:49;;;;;;;3.17;1.30;;;15.70;99.90;;;;;;5028273;28;20030;-65
2021/01/23 11:50:14;;;;;;;3.03;1.20;;;15.70;99.90;;;;;;5027756;28;20032;-66
2021/01/23 11:52:40;;;;;;;3.63;1.70;;;15.70;99.90;;;;;;5027031;28;20064;-65
2021/01/23 11:55:06;;;;;;;2.53;1.15;;;15.60;99.90;;;;;;5023834;28;20053;-65
2021/01/23 11:57:33;;;;;;;2.90;1.30;;;15.70;99.90;;;;;;5031568;28;20111;-63
2021/01/23 11:59:58;;;;;;;4.10;1.65;;;15.60;99.90;;;;;;5026030;28;20433;-65
2021/01/23 12:02:24;;;;;;;2.80;1.40;;;15.60;99.90;;;;;;5030316;28;20036;-65
2021/01/23 12:04:50;;;;;;;3.28;1.52;;;15.60;99.90;;;;;;5023738;28;20057;-65
2021/01/23 12:07:16;;;;;;;1.90;1.20;;;15.60;99.90;;;;;;5011101;28;20109;-64
2021/01/23 12:09:43;;;;;;;4.07;1.35;;;15.60;99.90;;;;;;5026343;28;20060;-62
2021/01/23 12:12:09;;;;;;;2.33;1.30;;;15.60;99.90;;;;;;5024270;28;20018;-62
2021/01/23 12:14:35;;;;;;;2.50;1.35;;;15.60;99.90;;;;;;4998298;28;20449;-62
2021/01/23 12:17:01;;;;;;;4.00;1.58;;;15.50;99.90;;;;;;5031619;28;20120;-63
2021/01/23 12:19:27;;;;;;;3.00;1.30;;;15.40;99.90;;;;;;5027653;28;20032;-64
2021/01/23 12:21:53;;;;;;;2.13;1.30;;;15.30;99.90;;;;;;5031256;28;20029;-62
2021/01/23 12:24:19;;;;;;;2.20;1.30;;;15.20;99.90;;;;;;5025733;28;20049;-62
2021/01/23 12:26:44;;;;;;;2.75;1.30;;;15.20;99.90;;;;;;5016540;28;20503;-63
2021/01/23 12:29:10;;;;;;;2.70;1.25;;;15.10;99.90;;;;;;4995321;28;20022;-63
2021/01/23 12:31:35;;;;;;;2.90;1.13;;;15.20;99.90;;;;;;5018899;28;20081;-62
2021/01/23 12:34:01;;;;;;;2.85;1.20;;;15.20;99.90;;;;;;5011924;28;20022;-62
2021/01/23 12:36:27;;;;;;;2.85;1.20;;;15.20;99.90;;;;;;5019774;28;20419;-62
2021/01/23 12:38:52;;;;;;;2.55;1.10;;;15.20;99.90;;;;;;5030502;28;20026;-62
2021/01/23 12:41:18;;;;;;;2.17;1.10;;;15.20;99.90;;;;;;5030596;28;20371;-62
2021/01/23 12:43:43;;;;;;;3.10;1.33;;;15.20;99.90;;;;;;5031910;28;20030;-63
2021/01/23 12:46:09;;;;;;;3.33;1.33;;;15.20;99.90;;;;;;5026752;28;20477;-62
2021/01/23 12:48:35;;;;;;;3.42;1.25;;;15.20;99.90;;;;;;5015120;28;20034;-62
2021/01/23 12:51:00;;;;;;;2.75;1.30;;;15.20;99.90;;;;;;5030033;28;20053;-62